Time;durP1;ratioP1;P1;durP2;ratioP2;P2;SDS_P1;SDS_P2;PMS_P1;PMS_P2;Temp;Humidity;BMP_temperature;BMP_pressure;BME280_temperature;BME280_humidity;BME280_pressure;Samples;Min_cycle;Max_cycle;Signal;HPM_P1;HPM_P2
2020/12/04 00:02:26;;;;;;;15.82;10.55;;;5.20;89.20;;;;;;5006064;28;20049;-51
2020/12/04 00:05:11;;;;;;;14.10;10.05;;;5.00;89.20;;;;;;4995435;28;20038;-52
2020/12/04 00:07:37;;;;;;;14.15;9.98;;;5.10;89.20;;;;;;5023179;28;20040;-52
2020/12/04 00:10:22;;;;;;;17.92;10.27;;;5.20;88.10;;;;;;5003131;28;20046;-51
2020/12/04 00:12:49;;;;;;;14.43;9.02;;;5.10;88.90;;;;;;5016984;28;20091;-54
2020/12/04 00:15:14;;;;;;;16.85;10.98;;;5.20;88.30;;;;;;5016136;28;20052;-54
2020/12/04 00:17:40;;;;;;;13.65;8.82;;;5.20;87.80;;;;;;5024671;28;20042;-52
2020/12/04 00:20:07;;;;;;;15.30;10.77;;;5.20;88.00;;;;;;5013617;28;20048;-53
2020/12/04 00:22:33;;;;;;;15.88;10.02;;;5.10;88.20;;;;;;4992703;28;20049;-49
2020/12/04 00:24:59;;;;;;;13.00;8.80;;;5.20;88.40;;;;;;5023315;28;20041;-49
2020/12/04 00:27:45;;;;;;;15.88;10.38;;;5.20;87.30;;;;;;5000494;28;20057;-50
2020/12/04 00:30:11;;;;;;;15.07;10.00;;;5.20;87.90;;;;;;5014305;28;20049;-49
2020/12/04 00:32:36;;;;;;;15.07;10.50;;;5.10;88.30;;;;;;5025688;28;20046;-49
2020/12/04 00:35:02;;;;;;;15.25;10.15;;;5.10;89.00;;;;;;5018541;28;20038;-52
2020/12/04 00:37:28;;;;;;;15.65;10.65;;;5.10;88.50;;;;;;5015851;28;20042;-52
2020/12/04 00:39:54;;;;;;;14.85;10.32;;;5.10;88.20;;;;;;5016901;28;20053;-51
2020/12/04 00:42:40;;;;;;;13.85;9.30;;;5.10;88.70;;;;;;5010027;28;20739;-49
2020/12/04 00:45:07;;;;;;;12.82;8.75;;;5.20;88.70;;;;;;5029759;28;20109;-49
2020/12/04 00:47:33;;;;;;;15.43;11.18;;;5.30;87.40;;;;;;5017786;28;20132;-49
2020/12/04 00:50:01;;;;;;;17.00;10.40;;;5.20;88.10;;;;;;5030243;28;20128;-50
2020/12/04 00:52:30;;;;;;;14.82;9.98;;;5.10;88.40;;;;;;5018228;28;20042;-48
2020/12/04 00:54:55;;;;;;;15.80;10.55;;;5.10;88.50;;;;;;5019427;28;20069;-49
2020/12/04 00:57:21;;;;;;;13.77;9.52;;;5.10;88.70;;;;;;5014080;28;20132;-51
2020/12/04 01:00:07;;;;;;;16.42;11.00;;;5.10;88.60;;;;;;4998402;28;20042;-49
2020/12/04 01:02:32;;;;;;;16.33;11.10;;;5.10;89.00;;;;;;5021228;28;20551;-51
2020/12/04 01:04:59;;;;;;;15.70;9.63;;;5.00;88.90;;;;;;5031398;28;20440;-49
2020/12/04 01:07:24;;;;;;;14.93;10.10;;;5.10;88.80;;;;;;5012967;28;20057;-49
2020/12/04 01:09:50;;;;;;;16.40;10.27;;;5.10;88.40;;;;;;5017959;28;20103;-49
2020/12/04 01:12:35;;;;;;;15.70;11.15;;;5.00;89.10;;;;;;5003279;28;20049;-49
2020/12/04 01:15:23;;;;;;;14.90;10.48;;;4.90;89.80;;;;;;4995154;28;20056;-49
2020/12/04 01:17:49;;;;;;;16.33;11.25;;;4.90;89.30;;;;;;5008364;28;20047;-48
2020/12/04 01:20:35;;;;;;;16.90;10.20;;;5.00;89.30;;;;;;5000951;28;20132;-52
2020/12/04 01:23:21;;;;;;;15.93;10.68;;;4.90;89.30;;;;;;4991939;28;20465;-52
2020/12/04 01:25:48;;;;;;;16.02;10.38;;;4.90;89.00;;;;;;5014526;28;20038;-49
2020/12/04 01:28:34;;;;;;;13.75;9.35;;;4.90;89.40;;;;;;4999130;28;20088;-52
2020/12/04 01:31:19;;;;;;;16.10;11.20;;;5.10;88.10;;;;;;5005965;28;20056;-52
2020/12/04 01:33:45;;;;;;;16.85;10.95;;;5.00;88.50;;;;;;5020647;28;20140;-55
2020/12/04 01:36:14;;;;;;;16.63;11.18;;;5.00;88.60;;;;;;5012368;28;20124;-50
2020/12/04 01:39:05;;;;;;;14.57;10.15;;;5.00;88.60;;;;;;5011607;28;20045;-52
2020/12/04 01:41:50;;;;;;;17.48;10.05;;;4.90;88.60;;;;;;4999079;28;20502;-50
2020/12/04 01:44:16;;;;;;;18.23;11.52;;;4.90;89.00;;;;;;5023523;28;20488;-50
2020/12/04 01:46:41;;;;;;;14.93;10.15;;;4.90;88.50;;;;;;5021094;28;20053;-50
2020/12/04 01:49:07;;;;;;;15.82;10.15;;;5.00;88.20;;;;;;5016741;28;20115;-50
2020/12/04 01:51:34;;;;;;;14.98;9.50;;;5.00;88.30;;;;;;5023264;28;20559;-50
2020/12/04 01:54:21;;;;;;;15.02;10.20;;;5.00;88.40;;;;;;5011645;28;20053;-50
2020/12/04 01:56:48;;;;;;;15.38;10.13;;;4.80;88.90;;;;;;5027992;28;20072;-51
2020/12/04 01:59:14;;;;;;;16.77;10.50;;;4.90;88.30;;;;;;5026591;28;20042;-53
2020/12/04 02:01:43;;;;;;;17.25;10.50;;;4.90;88.50;;;;;;5026300;28;20045;-52
2020/12/04 02:04:11;;;;;;;14.70;9.25;;;4.80;89.10;;;;;;5023301;28;20096;-50
2020/12/04 02:06:43;;;;;;;16.65;10.35;;;4.90;88.80;;;;;;5029803;28;20037;-50
2020/12/04 02:09:42;;;;;;;14.07;8.95;;;5.00;88.40;;;;;;5031804;28;20037;-50
2020/12/04 02:12:15;;;;;;;16.92;10.20;;;5.00;88.70;;;;;;5009729;28;20077;-52
2020/12/04 02:15:02;;;;;;;16.80;10.60;;;4.90;89.10;;;;;;5009808;28;20516;-52
2020/12/04 02:17:38;;;;;;;17.67;10.80;;;4.90;89.10;;;;;;5029851;28;20076;-51
2020/12/04 02:20:24;;;;;;;18.40;11.02;;;4.80;89.60;;;;;;4997352;28;20541;-53
2020/12/04 02:22:50;;;;;;;15.95;9.52;;;4.90;89.20;;;;;;5019651;28;20053;-54
2020/12/04 02:25:15;;;;;;;17.80;10.35;;;4.90;89.30;;;;;;5017039;28;20509;-50
2020/12/04 02:27:49;;;;;;;16.48;10.48;;;4.80;89.50;;;;;;5020635;28;20053;-54
2020/12/04 02:30:24;;;;;;;16.58;10.40;;;4.80;89.90;;;;;;5024463;28;20525;-50
2020/12/04 02:33:09;;;;;;;13.48;9.20;;;4.80;90.00;;;;;;4997021;28;20038;-51
2020/12/04 02:35:35;;;;;;;16.45;10.30;;;4.90;89.70;;;;;;5021549;28;20513;-53
2020/12/04 02:38:01;;;;;;;16.35;10.50;;;4.90;89.70;;;;;;5008291;28;20069;-51
2020/12/04 02:40:46;;;;;;;14.95;9.48;;;5.00;89.10;;;;;;5006603;28;20069;-50
2020/12/04 02:43:12;;;;;;;16.88;10.07;;;4.90;89.40;;;;;;5027958;28;20103;-48
2020/12/04 02:45:38;;;;;;;17.38;9.32;;;4.90;89.60;;;;;;5019190;28;20045;-49
2020/12/04 02:48:03;;;;;;;14.77;8.73;;;4.80;90.00;;;;;;5024330;28;20091;-51
2020/12/04 02:50:49;;;;;;;14.27;9.63;;;4.90;89.60;;;;;;5000929;28;20046;-53
2020/12/04 02:53:14;;;;;;;16.13;10.20;;;4.80;90.10;;;;;;5016405;28;20037;-51
2020/12/04 02:56:00;;;;;;;16.02;9.27;;;4.80;90.20;;;;;;4997132;28;20057;-48
2020/12/04 02:58:27;;;;;;;15.18;9.40;;;4.90;90.00;;;;;;5023729;28;20544;-49
2020/12/04 03:00:52;;;;;;;14.93;10.32;;;5.00;89.40;;;;;;4998835;28;20041;-49
2020/12/04 03:03:18;;;;;;;15.57;8.65;;;4.80;90.00;;;;;;4999693;28;20092;-49
2020/12/04 03:06:04;;;;;;;16.80;9.82;;;4.90;90.00;;;;;;5007945;28;20061;-54
2020/12/04 03:08:50;;;;;;;16.75;10.32;;;4.90;90.10;;;;;;4986041;28;20054;-53
2020/12/04 03:11:24;;;;;;;16.15;8.52;;;4.90;90.10;;;;;;5023671;28;20413;-52
2020/12/04 03:13:50;;;;;;;13.90;9.07;;;4.90;90.20;;;;;;5015496;28;20462;-52
2020/12/04 03:16:36;;;;;;;15.73;10.13;;;4.90;90.10;;;;;;5013670;28;20121;-52
2020/12/04 03:19:02;;;;;;;18.70;10.10;;;4.90;90.20;;;;;;5014588;28;20041;-52
2020/12/04 03:21:28;;;;;;;15.10;8.63;;;4.80;90.30;;;;;;5011554;28;20034;-55
2020/12/04 03:24:13;;;;;;;14.05;8.40;;;5.00;89.70;;;;;;5001152;28;20088;-52
2020/12/04 03:26:59;;;;;;;14.70;8.80;;;5.00;89.80;;;;;;5001087;28;20049;-51
2020/12/04 03:29:48;;;;;;;14.32;9.02;;;5.10;89.00;;;;;;5002109;28;20053;-49
2020/12/04 03:32:15;;;;;;;13.70;9.10;;;5.10;89.80;;;;;;5015467;28;20085;-49
2020/12/04 03:35:01;;;;;;;14.40;8.77;;;5.00;90.10;;;;;;4991651;28;20141;-49
2020/12/04 03:37:27;;;;;;;13.52;8.70;;;5.00;90.10;;;;;;4998150;28;20570;-49
2020/12/04 03:39:53;;;;;;;15.35;9.48;;;5.00;90.10;;;;;;5020591;28;20052;-52
2020/12/04 03:42:19;;;;;;;17.77;8.82;;;5.00;90.20;;;;;;5024107;28;20050;-50
2020/12/04 03:44:44;;;;;;;15.23;9.52;;;5.00;90.10;;;;;;5026643;28;20754;-51
2020/12/04 03:47:10;;;;;;;14.82;9.40;;;5.00;90.30;;;;;;5025578;28;20529;-47
2020/12/04 03:49:36;;;;;;;12.45;7.80;;;5.00;90.00;;;;;;5012609;28;20042;-48
2020/12/04 03:52:01;;;;;;;12.82;8.40;;;5.10;90.10;;;;;;5022437;28;20486;-48
2020/12/04 03:54:28;;;;;;;14.80;9.75;;;5.10;90.10;;;;;;5003600;28;20524;-49
2020/12/04 03:56:54;;;;;;;13.45;8.70;;;5.10;90.20;;;;;;5018300;28;20077;-50
2020/12/04 03:59:20;;;;;;;14.45;8.80;;;5.00;90.20;;;;;;5024888;28;20045;-48
2020/12/04 04:01:45;;;;;;;13.88;8.13;;;5.00;90.30;;;;;;5008321;28;20041;-48
2020/12/04 04:04:11;;;;;;;12.13;8.23;;;5.00;90.50;;;;;;5021945;28;20048;-50
2020/12/04 04:06:37;;;;;;;13.18;8.70;;;5.10;90.40;;;;;;5015785;28;20417;-48
2020/12/04 04:09:03;;;;;;;13.10;8.77;;;5.00;90.60;;;;;;5010940;28;20045;-51
2020/12/04 04:11:29;;;;;;;13.95;8.45;;;5.10;90.30;;;;;;5017824;28;20145;-49
2020/12/04 04:14:14;;;;;;;12.38;8.18;;;5.10;90.30;;;;;;4994567;28;20046;-48
2020/12/04 04:17:01;;;;;;;12.13;8.10;;;5.10;90.20;;;;;;5013045;28;20055;-48
2020/12/04 04:19:27;;;;;;;13.98;9.10;;;5.10;90.30;;;;;;5022587;28;20049;-52
2020/12/04 04:21:53;;;;;;;13.93;8.68;;;5.10;90.40;;;;;;5010636;28;20044;-48
2020/12/04 04:24:38;;;;;;;13.40;8.55;;;5.00;90.70;;;;;;5012974;28;20042;-50
2020/12/04 04:27:24;;;;;;;15.25;8.15;;;5.00;90.70;;;;;;5005262;28;20046;-49
2020/12/04 04:29:50;;;;;;;12.45;8.02;;;5.00;90.80;;;;;;5025654;28;20112;-48
2020/12/04 04:32:16;;;;;;;13.65;8.55;;;5.10;90.60;;;;;;5025529;28;20046;-52
2020/12/04 04:35:03;;;;;;;13.68;9.02;;;5.20;90.60;;;;;;5004947;28;20061;-53
2020/12/04 04:37:49;;;;;;;11.95;7.45;;;5.10;90.70;;;;;;5020765;28;20061;-49
2020/12/04 04:40:15;;;;;;;14.00;8.25;;;5.20;90.60;;;;;;5023339;28;20482;-50
2020/12/04 04:42:42;;;;;;;13.95;8.98;;;5.20;90.50;;;;;;4997761;28;20465;-50
2020/12/04 04:45:07;;;;;;;13.35;8.68;;;5.20;90.60;;;;;;5017769;28;20038;-50
2020/12/04 04:47:53;;;;;;;14.15;8.23;;;5.10;91.00;;;;;;5009868;28;20046;-50
2020/12/04 04:50:43;;;;;;;15.38;8.43;;;5.10;91.10;;;;;;5006521;28;20103;-51
2020/12/04 04:53:29;;;;;;;12.60;7.90;;;5.10;91.10;;;;;;5014900;28;20045;-51
2020/12/04 04:55:55;;;;;;;14.55;9.20;;;5.20;91.00;;;;;;5012651;28;20044;-49
2020/12/04 04:58:21;;;;;;;14.20;9.40;;;5.00;91.30;;;;;;5024858;28;20045;-51
2020/12/04 05:00:47;;;;;;;14.15;9.05;;;5.10;91.20;;;;;;5019548;28;20411;-48
2020/12/04 05:03:32;;;;;;;13.90;9.05;;;5.10;91.30;;;;;;4988278;28;20128;-52
2020/12/04 05:05:58;;;;;;;12.77;8.07;;;5.10;91.50;;;;;;5028288;28;20159;-51
2020/12/04 05:08:51;;;;;;;13.63;8.68;;;5.20;91.10;;;;;;5006899;28;20053;-51
2020/12/04 05:11:36;;;;;;;15.05;9.10;;;5.10;91.20;;;;;;5012571;28;20052;-51
2020/12/04 05:14:16;;;;;;;17.55;8.63;;;5.10;91.20;;;;;;5031402;28;20045;-47
2020/12/04 05:16:44;;;;;;;12.70;8.75;;;5.10;91.40;;;;;;5022760;28;20083;-49
2020/12/04 05:19:32;;;;;;;13.32;8.45;;;5.20;91.30;;;;;;5003157;28;20073;-51
2020/12/04 05:22:12;;;;;;;12.52;7.82;;;5.10;91.60;;;;;;5022278;28;20077;-49
2020/12/04 05:24:39;;;;;;;13.82;8.48;;;5.20;91.40;;;;;;5029562;28;20033;-49
2020/12/04 05:27:27;;;;;;;15.82;8.93;;;5.10;91.50;;;;;;5011328;28;20649;-48
2020/12/04 05:29:59;;;;;;;13.20;7.57;;;5.20;91.60;;;;;;5013958;28;20063;-52
2020/12/04 05:32:26;;;;;;;14.15;8.73;;;5.20;91.40;;;;;;5023755;28;20041;-52
2020/12/04 05:35:07;;;;;;;15.48;8.45;;;5.30;91.20;;;;;;5027025;28;20504;-53
2020/12/04 05:37:33;;;;;;;12.75;7.95;;;5.30;91.40;;;;;;5024182;28;20128;-50
2020/12/04 05:39:59;;;;;;;13.80;7.93;;;5.30;91.30;;;;;;5019262;28;20120;-52
2020/12/04 05:42:29;;;;;;;14.07;8.57;;;5.30;91.20;;;;;;5017361;28;20418;-53
2020/12/04 05:44:55;;;;;;;13.80;8.93;;;5.30;91.50;;;;;;5021057;28;20037;-49
2020/12/04 05:47:45;;;;;;;15.25;9.23;;;5.20;91.50;;;;;;4999474;28;20065;-51
2020/12/04 05:50:13;;;;;;;14.68;9.05;;;5.20;91.60;;;;;;5025417;28;20121;-51
2020/12/04 05:52:58;;;;;;;15.55;9.50;;;5.20;91.70;;;;;;4997037;28;20156;-51
2020/12/04 05:55:24;;;;;;;13.90;8.07;;;5.20;91.80;;;;;;5012744;28;20063;-53
2020/12/04 05:58:14;;;;;;;13.98;9.30;;;5.20;91.90;;;;;;4999485;28;20729;-50
2020/12/04 06:00:41;;;;;;;12.70;8.25;;;5.20;91.60;;;;;;5026023;28;20045;-52
2020/12/04 06:03:27;;;;;;;14.75;9.13;;;5.20;91.80;;;;;;5010719;28;20490;-51
2020/12/04 06:05:55;;;;;;;14.20;9.05;;;5.20;91.80;;;;;;5018460;28;21261;-51
2020/12/04 06:08:23;;;;;;;17.42;10.23;;;5.10;91.70;;;;;;5028783;28;20088;-51
2020/12/04 06:10:52;;;;;;;14.18;8.60;;;5.20;91.50;;;;;;5005308;28;20037;-53
2020/12/04 06:13:38;;;;;;;15.38;9.55;;;5.20;91.90;;;;;;5008566;28;20049;-53
2020/12/04 06:16:15;;;;;;;14.68;8.70;;;5.20;91.70;;;;;;5016621;28;20048;-50
2020/12/04 06:19:01;;;;;;;15.88;9.20;;;5.20;91.70;;;;;;4996581;28;20042;-49
2020/12/04 06:21:46;;;;;;;14.18;8.93;;;5.20;91.80;;;;;;5020529;28;20091;-49
2020/12/04 06:24:13;;;;;;;14.63;9.23;;;5.30;91.50;;;;;;5035694;28;20395;-49
2020/12/04 06:26:49;;;;;;;13.70;9.13;;;5.20;91.60;;;;;;5033576;28;20080;-51
2020/12/04 06:29:16;;;;;;;14.25;8.80;;;5.20;91.70;;;;;;5016310;28;20049;-49
2020/12/04 06:31:42;;;;;;;14.75;9.50;;;5.30;91.50;;;;;;5029471;28;20063;-50
2020/12/04 06:34:41;;;;;;;13.88;9.02;;;5.20;91.50;;;;;;5020721;28;20042;-50
2020/12/04 06:37:37;;;;;;;13.77;8.88;;;5.20;91.60;;;;;;5016151;28;20401;-48
2020/12/04 06:40:29;;;;;;;13.32;8.63;;;5.30;91.70;;;;;;4997797;28;20038;-52
2020/12/04 06:42:57;;;;;;;13.57;8.35;;;5.20;91.60;;;;;;4994994;28;20596;-54
2020/12/04 06:45:23;;;;;;;14.70;8.55;;;5.20;91.70;;;;;;5015400;28;20125;-53
2020/12/04 06:48:08;;;;;;;12.32;8.02;;;5.20;91.70;;;;;;5021164;28;20034;-48
2020/12/04 06:50:45;;;;;;;13.45;8.25;;;5.20;91.70;;;;;;5020174;28;20042;-49
2020/12/04 06:53:30;;;;;;;16.02;8.70;;;5.30;91.50;;;;;;4988740;28;20225;-49
2020/12/04 06:55:56;;;;;;;14.27;8.40;;;5.30;91.60;;;;;;5025389;28;20470;-52
2020/12/04 06:58:24;;;;;;;12.82;7.65;;;5.30;91.60;;;;;;5014653;28;20046;-54
2020/12/04 07:00:56;;;;;;;13.20;8.02;;;5.30;91.60;;;;;;5006466;28;20045;-50
2020/12/04 07:03:21;;;;;;;12.20;7.17;;;5.30;91.50;;;;;;5009457;28;20045;-50
2020/12/04 07:06:07;;;;;;;14.23;8.40;;;5.30;91.50;;;;;;5016577;28;20390;-54
2020/12/04 07:08:33;;;;;;;10.63;7.03;;;5.30;91.60;;;;;;5015539;28;20045;-49
2020/12/04 07:11:22;;;;;;;12.43;7.90;;;5.30;91.80;;;;;;5005240;28;20065;-51
2020/12/04 07:14:08;;;;;;;11.70;7.90;;;5.30;91.60;;;;;;5013913;28;20081;-54
2020/12/04 07:16:39;;;;;;;12.02;7.70;;;5.40;91.50;;;;;;5011681;28;20042;-49
2020/12/04 07:19:06;;;;;;;10.88;6.95;;;5.30;91.70;;;;;;5035236;28;20095;-51
2020/12/04 07:21:33;;;;;;;12.07;7.40;;;5.40;91.60;;;;;;5022303;28;20041;-50
2020/12/04 07:24:19;;;;;;;10.77;6.47;;;5.40;91.50;;;;;;5010669;28;20559;-50
2020/12/04 07:27:06;;;;;;;9.18;6.35;;;5.50;91.20;;;;;;5017063;28;20078;-50
2020/12/04 07:29:37;;;;;;;10.82;6.50;;;5.60;91.10;;;;;;5022661;28;20083;-51
2020/12/04 07:32:03;;;;;;;10.90;6.32;;;5.60;90.90;;;;;;5029688;28;20046;-52
2020/12/04 07:34:31;;;;;;;10.77;6.18;;;5.60;91.20;;;;;;5002893;28;20549;-49
2020/12/04 07:36:56;;;;;;;10.45;6.20;;;5.50;91.20;;;;;;5028275;28;20042;-50
2020/12/04 07:39:31;;;;;;;10.60;6.85;;;5.50;91.20;;;;;;5023798;28;20048;-52
2020/12/04 07:42:18;;;;;;;10.70;6.70;;;5.50;91.30;;;;;;5004451;28;20038;-49
2020/12/04 07:44:51;;;;;;;8.85;5.75;;;5.50;91.40;;;;;;5030154;28;20115;-49
2020/12/04 07:47:17;;;;;;;10.18;6.40;;;5.60;91.20;;;;;;5018472;28;20037;-49
2020/12/04 07:49:54;;;;;;;6.88;4.80;;;5.60;91.00;;;;;;5015873;28;20046;-49
2020/12/04 07:52:21;;;;;;;8.57;5.47;;;5.60;90.90;;;;;;5004659;28;20153;-50
2020/12/04 07:54:49;;;;;;;11.00;6.10;;;5.70;91.00;;;;;;5021351;28;20093;-50
2020/12/04 07:57:24;;;;;;;7.88;5.05;;;5.70;91.00;;;;;;5024006;28;20407;-52
2020/12/04 07:59:54;;;;;;;7.50;4.88;;;5.70;90.90;;;;;;5015230;28;20050;-51
2020/12/04 08:02:23;;;;;;;8.75;5.38;;;5.80;90.80;;;;;;5027763;28;20107;-50
2020/12/04 08:04:49;;;;;;;8.07;5.10;;;5.80;90.60;;;;;;5028230;28;20113;-50
2020/12/04 08:07:35;;;;;;;7.47;5.03;;;5.90;90.60;;;;;;4995352;28;20410;-52
2020/12/04 08:10:01;;;;;;;7.85;5.05;;;5.90;90.50;;;;;;5030559;28;20045;-51
2020/12/04 08:12:32;;;;;;;7.78;4.85;;;5.90;90.50;;;;;;5014364;28;20056;-50
2020/12/04 08:15:01;;;;;;;11.55;5.43;;;6.00;90.60;;;;;;5015768;28;20042;-49
2020/12/04 08:17:29;;;;;;;7.18;4.75;;;5.90;90.60;;;;;;5034291;28;20490;-49
2020/12/04 08:20:18;;;;;;;7.20;4.65;;;6.00;90.40;;;;;;5000622;28;20083;-49
2020/12/04 08:23:04;;;;;;;7.32;4.93;;;6.00;90.70;;;;;;4999363;28;20046;-50
2020/12/04 08:25:31;;;;;;;10.20;5.03;;;5.90;90.70;;;;;;5019864;28;20056;-52
2020/12/04 08:27:58;;;;;;;8.35;4.97;;;6.00;90.60;;;;;;5020440;28;20038;-54
2020/12/04 08:30:28;;;;;;;7.80;4.90;;;6.10;90.40;;;;;;5024446;28;20513;-51
2020/12/04 08:32:53;;;;;;;8.02;5.15;;;6.10;90.30;;;;;;5023801;28;20052;-48
2020/12/04 08:35:42;;;;;;;7.82;4.60;;;6.10;90.40;;;;;;5018620;28;20041;-53
2020/12/04 08:38:13;;;;;;;8.70;5.22;;;6.10;90.20;;;;;;5021922;28;20558;-51
2020/12/04 08:40:58;;;;;;;6.95;4.75;;;6.20;90.20;;;;;;5006082;28;20038;-53
2020/12/04 08:43:25;;;;;;;7.07;4.35;;;6.20;90.20;;;;;;5024332;28;20044;-49
2020/12/04 08:45:56;;;;;;;6.38;4.28;;;6.20;90.20;;;;;;5023537;28;20037;-54
2020/12/04 08:48:28;;;;;;;6.63;4.30;;;6.20;90.20;;;;;;5017200;28;20046;-51
2020/12/04 08:51:00;;;;;;;8.65;4.40;;;6.30;90.10;;;;;;5024939;28;20026;-49
2020/12/04 08:53:26;;;;;;;6.70;4.22;;;6.30;90.00;;;;;;5019316;28;20477;-49
2020/12/04 08:55:57;;;;;;;6.28;4.20;;;6.40;90.00;;;;;;5018994;28;20048;-52
2020/12/04 08:58:25;;;;;;;6.22;3.70;;;6.40;89.70;;;;;;5020194;28;20046;-53
2020/12/04 09:00:52;;;;;;;5.43;3.42;;;6.50;89.10;;;;;;5018892;28;20410;-52
2020/12/04 09:03:19;;;;;;;6.05;4.03;;;6.50;88.90;;;;;;5017655;28;20464;-51
2020/12/04 09:06:05;;;;;;;7.40;3.28;;;6.60;88.60;;;;;;5005896;28;20081;-54
2020/12/04 09:08:30;;;;;;;7.20;3.67;;;6.60;88.50;;;;;;5017928;28;20068;-51
2020/12/04 09:10:56;;;;;;;6.32;3.47;;;6.70;88.50;;;;;;5021822;28;20034;-52
2020/12/04 09:13:21;;;;;;;4.72;3.40;;;6.70;88.20;;;;;;5026311;28;20094;-51
2020/12/04 09:15:47;;;;;;;5.45;3.03;;;6.70;87.90;;;;;;5018693;28;20148;-54
2020/12/04 09:18:13;;;;;;;5.50;3.20;;;6.80;87.70;;;;;;5022442;28;20486;-53
2020/12/04 09:20:58;;;;;;;5.32;3.42;;;6.80;87.80;;;;;;5017678;28;20148;-50
2020/12/04 09:23:24;;;;;;;6.03;3.08;;;6.90;87.30;;;;;;5026078;28;20152;-52
2020/12/04 09:25:49;;;;;;;4.72;3.17;;;6.90;87.50;;;;;;5019451;28;20045;-49
2020/12/04 09:28:36;;;;;;;5.75;3.13;;;7.00;87.10;;;;;;5001309;28;20136;-51
2020/12/04 09:31:02;;;;;;;4.68;3.10;;;7.00;87.20;;;;;;5008150;28;20590;-52
2020/12/04 09:33:27;;;;;;;6.93;3.03;;;7.00;87.20;;;;;;5003694;28;20060;-51
2020/12/04 09:35:53;;;;;;;4.32;2.92;;;7.10;86.40;;;;;;5025379;28;20140;-49
2020/12/04 09:38:38;;;;;;;4.90;2.95;;;7.10;86.40;;;;;;5003149;28;20064;-49
2020/12/04 09:41:24;;;;;;;4.50;3.00;;;7.20;86.10;;;;;;5005305;28;20049;-50
2020/12/04 09:43:50;;;;;;;4.07;2.67;;;7.20;85.90;;;;;;5016140;28;20056;-51
2020/12/04 09:46:36;;;;;;;4.55;2.88;;;7.20;85.80;;;;;;5002196;28;20045;-53
2020/12/04 09:49:02;;;;;;;4.75;2.85;;;7.30;86.00;;;;;;5003607;28;20045;-50
2020/12/04 09:51:28;;;;;;;4.40;3.03;;;7.30;86.40;;;;;;5021666;28;20397;-51
2020/12/04 09:53:54;;;;;;;5.20;3.00;;;7.30;86.10;;;;;;5021502;28;20847;-49
2020/12/04 09:56:21;;;;;;;3.95;2.80;;;7.40;86.10;;;;;;5016280;28;20522;-51
2020/12/04 09:58:48;;;;;;;5.40;2.85;;;7.40;85.70;;;;;;5010645;28;20048;-49
2020/12/04 10:01:14;;;;;;;4.93;2.90;;;7.40;86.40;;;;;;5015855;28;20290;-51
2020/12/04 10:03:59;;;;;;;7.30;3.00;;;7.40;86.20;;;;;;5013855;28;20049;-51
2020/12/04 10:06:25;;;;;;;4.45;3.00;;;7.50;86.30;;;;;;5020460;28;20049;-49
2020/12/04 10:08:50;;;;;;;6.40;2.75;;;7.50;86.50;;;;;;5023204;28;20488;-51
2020/12/04 10:11:16;;;;;;;4.25;2.95;;;7.50;85.10;;;;;;5020415;28;20069;-51
2020/12/04 10:13:42;;;;;;;4.82;2.80;;;7.50;85.40;;;;;;5022078;28;20044;-51
2020/12/04 10:16:07;;;;;;;3.92;2.53;;;7.50;85.50;;;;;;5021502;28;20188;-49
2020/12/04 10:18:35;;;;;;;3.95;2.38;;;7.50;85.20;;;;;;5022594;28;20270;-52
2020/12/04 10:21:00;;;;;;;4.28;2.67;;;7.60;85.30;;;;;;5021830;28;20040;-51
2020/12/04 10:23:46;;;;;;;4.68;2.63;;;7.60;85.20;;;;;;5020203;28;20104;-52
2020/12/04 10:26:12;;;;;;;5.22;2.30;;;7.70;85.10;;;;;;5016820;28;20049;-51
2020/12/04 10:28:38;;;;;;;4.03;2.40;;;7.80;84.20;;;;;;5017507;28;20057;-53
2020/12/04 10:31:05;;;;;;;4.50;2.40;;;7.80;84.50;;;;;;5003534;28;20050;-49
2020/12/04 10:33:30;;;;;;;4.90;2.08;;;7.90;84.10;;;;;;5004013;28;20045;-51
2020/12/04 10:36:16;;;;;;;3.40;2.10;;;7.90;83.90;;;;;;4996324;28;20038;-48
2020/12/04 10:38:42;;;;;;;5.57;2.05;;;8.00;83.30;;;;;;5016662;28;20041;-53
2020/12/04 10:41:08;;;;;;;3.22;1.80;;;8.00;83.00;;;;;;5008779;28;20553;-52
2020/12/04 10:43:34;;;;;;;4.43;2.42;;;8.10;83.50;;;;;;5008855;28;20060;-49
2020/12/04 10:46:00;;;;;;;3.63;2.13;;;8.10;83.00;;;;;;5020785;28;20073;-53
2020/12/04 10:48:45;;;;;;;3.47;2.10;;;8.10;82.10;;;;;;5007388;28;20041;-50
2020/12/04 10:51:12;;;;;;;3.22;1.98;;;8.20;82.90;;;;;;5021422;28;20064;-54
2020/12/04 10:53:38;;;;;;;2.72;1.58;;;8.10;82.80;;;;;;5019068;28;20049;-50
2020/12/04 10:56:05;;;;;;;3.38;1.88;;;8.10;82.60;;;;;;5020250;28;20045;-51
2020/12/04 10:58:30;;;;;;;3.47;2.10;;;8.20;82.90;;;;;;5008531;28;20498;-48
2020/12/04 11:01:30;;;;;;;2.88;1.73;;;8.20;83.00;;;;;;5001282;28;20509;-48
2020/12/04 11:06:23;;;;;;;3.53;1.65;;;8.30;83.10;;;;;;5013009;28;20038;-50
2020/12/04 11:09:08;;;;;;;3.17;1.65;;;8.30;80.90;;;;;;5008168;28;20041;-51
2020/12/04 11:11:34;;;;;;;6.82;1.65;;;8.40;79.80;;;;;;5018481;28;20056;-49
2020/12/04 11:13:59;;;;;;;2.72;1.60;;;8.50;78.20;;;;;;5014616;28;20049;-48
2020/12/04 11:16:25;;;;;;;2.47;1.40;;;8.60;77.70;;;;;;5017554;28;20129;-50
2020/12/04 11:18:51;;;;;;;1.92;1.27;;;8.50;78.50;;;;;;5021138;28;20052;-51
2020/12/04 11:21:16;;;;;;;3.03;1.30;;;8.50;78.80;;;;;;5017363;28;20133;-48
2020/12/04 11:23:42;;;;;;;2.80;1.42;;;8.50;78.80;;;;;;5010003;28;20041;-50
2020/12/04 11:26:07;;;;;;;1.88;1.40;;;8.50;78.30;;;;;;5012225;28;20037;-52
2020/12/04 11:28:34;;;;;;;1.77;1.35;;;8.40;79.10;;;;;;5012587;28;20037;-50
2020/12/04 11:31:01;;;;;;;1.73;1.25;;;8.40;77.80;;;;;;5012534;28;20053;-53
2020/12/04 11:33:28;;;;;;;2.65;1.20;;;8.50;78.40;;;;;;5010622;28;20095;-52
2020/12/04 11:36:13;;;;;;;2.67;1.50;;;8.50;78.00;;;;;;5000351;28;20394;-50
2020/12/04 11:38:39;;;;;;;2.40;1.20;;;8.50;78.20;;;;;;5015254;28;20087;-48
2020/12/04 11:41:06;;;;;;;3.25;1.40;;;8.50;77.80;;;;;;5023315;28;20034;-52
2020/12/04 11:43:32;;;;;;;1.75;1.30;;;8.40;77.60;;;;;;5012543;28;20494;-52
2020/12/04 11:45:58;;;;;;;2.90;1.30;;;8.40;78.00;;;;;;5016592;28;20046;-49
2020/12/04 11:48:24;;;;;;;2.60;1.23;;;8.40;77.40;;;;;;5019823;28;20045;-51
2020/12/04 11:50:49;;;;;;;1.95;1.00;;;8.40;76.60;;;;;;5015037;28;20053;-49
2020/12/04 11:53:15;;;;;;;1.13;0.80;;;8.30;76.00;;;;;;5020338;28;20128;-49
2020/12/04 11:55:41;;;;;;;1.55;0.70;;;8.30;75.30;;;;;;5019359;28;20045;-48
2020/12/04 11:58:07;;;;;;;0.80;0.77;;;8.40;74.70;;;;;;5014275;28;20404;-49
2020/12/04 12:00:32;;;;;;;2.55;0.88;;;8.30;76.20;;;;;;5019817;28;20029;-48
2020/12/04 12:02:58;;;;;;;1.00;0.60;;;8.40;74.80;;;;;;5023518;28;20033;-48
2020/12/04 12:05:23;;;;;;;1.48;1.00;;;8.40;75.50;;;;;;5022197;28;20509;-51
2020/12/04 12:07:49;;;;;;;0.98;0.70;;;8.30;76.90;;;;;;5029516;28;20326;-52
2020/12/04 12:10:17;;;;;;;3.08;0.90;;;8.30;75.10;;;;;;5027769;28;20045;-51
2020/12/04 12:12:43;;;;;;;2.63;0.57;;;8.40;74.20;;;;;;4989822;28;20034;-53
2020/12/04 12:15:28;;;;;;;0.60;0.60;;;8.40;73.90;;;;;;5006927;28;20045;-49
2020/12/04 12:17:54;;;;;;;2.83;0.90;;;8.40;73.50;;;;;;5024456;28;20041;-49
2020/12/04 12:20:20;;;;;;;3.33;0.77;;;8.40;73.70;;;;;;5023554;28;20052;-49
2020/12/04 12:22:46;;;;;;;0.80;0.80;;;8.40;73.40;;;;;;5024220;28;20391;-50
2020/12/04 12:25:12;;;;;;;1.50;0.98;;;8.40;74.20;;;;;;5013830;28;20041;-51
2020/12/04 12:27:37;;;;;;;2.25;1.10;;;8.40;74.30;;;;;;5028719;28;20048;-48
2020/12/04 12:30:03;;;;;;;2.00;1.10;;;8.30;75.60;;;;;;5030120;28;20041;-50
2020/12/04 12:32:50;;;;;;;1.15;0.70;;;8.30;75.50;;;;;;4998800;28;20145;-50
2020/12/04 12:35:19;;;;;;;1.20;0.80;;;8.30;74.80;;;;;;5030741;28;20121;-51
2020/12/04 12:37:44;;;;;;;1.05;0.90;;;8.20;73.80;;;;;;5032960;28;20139;-51
2020/12/04 12:40:11;;;;;;;2.70;0.82;;;8.30;71.80;;;;;;5029966;28;20256;-50
2020/12/04 12:42:40;;;;;;;0.95;0.70;;;8.20;73.50;;;;;;5014325;28;20121;-48
2020/12/04 12:45:25;;;;;;;1.25;0.85;;;8.20;72.30;;;;;;5000527;28;20053;-52
2020/12/04 12:47:51;;;;;;;0.70;0.70;;;8.20;72.60;;;;;;5026488;28;20050;-48
2020/12/04 12:50:17;;;;;;;0.75;0.75;;;8.20;73.00;;;;;;5014253;28;20283;-48
2020/12/04 12:52:43;;;;;;;0.93;0.70;;;8.10;73.90;;;;;;5022947;28;20064;-49
2020/12/04 12:55:09;;;;;;;4.35;0.90;;;8.20;74.00;;;;;;5013798;28;20066;-50
2020/12/04 12:57:34;;;;;;;0.70;0.70;;;8.10;75.00;;;;;;5025814;28;20050;-49
2020/12/04 13:00:00;;;;;;;1.55;0.93;;;8.20;75.00;;;;;;5026686;28;20060;-51
2020/12/04 13:02:26;;;;;;;3.08;0.90;;;8.30;74.10;;;;;;5020324;28;20068;-49
2020/12/04 13:04:51;;;;;;;0.40;0.40;;;8.30;74.20;;;;;;5020525;28;20132;-48
2020/12/04 13:07:17;;;;;;;3.20;0.88;;;8.40;74.30;;;;;;5019875;28;20091;-51
2020/12/04 13:09:43;;;;;;;0.60;0.60;;;8.40;73.60;;;;;;5024857;28;20418;-51
2020/12/04 13:12:09;;;;;;;2.03;0.70;;;8.40;73.30;;;;;;5030768;28;20069;-52
2020/12/04 13:14:55;;;;;;;2.55;0.63;;;8.40;74.00;;;;;;5006949;28;20414;-50
2020/12/04 13:17:20;;;;;;;0.60;0.60;;;8.40;74.40;;;;;;5019221;28;20038;-50
2020/12/04 13:19:46;;;;;;;0.95;0.43;;;8.30;72.70;;;;;;5013510;28;20038;-54